createdAt,value
2018-05-15T00:00:55.612Z,32.67
2018-05-15T00:06:57.292Z,34.57
2018-05-15T00:12:58.972Z,32.30
2018-05-15T00:19:00.681Z,33.77
2018-05-15T00:25:03.078Z,33.20
2018-05-15T00:31:04.934Z,35.00
2018-05-15T00:37:07.335Z,34.43
2018-05-15T00:43:08.980Z,33.33
2018-05-15T00:49:10.632Z,32.60
2018-05-15T00:55:30.781Z,33.13
2018-05-15T01:01:32.482Z,33.97
2018-05-15T01:07:34.145Z,34.50
2018-05-15T01:13:35.853Z,34.60
2018-05-15T01:19:37.530Z,33.87
2018-05-15T01:25:39.197Z,35.53
2018-05-15T01:31:40.828Z,36.07
2018-05-15T01:37:42.478Z,35.27
2018-05-15T01:43:44.126Z,33.00
2018-05-15T01:49:46.518Z,35.23
2018-05-15T01:55:48.161Z,33.50
2018-05-15T02:01:50.626Z,34.23
2018-05-15T02:07:52.366Z,32.60
2018-05-15T02:13:54.074Z,32.97
2018-05-15T02:19:55.744Z,32.33
2018-05-15T02:25:57.426Z,33.87
2018-05-15T02:31:59.908Z,34.67
2018-05-15T02:38:01.599Z,32.63
2018-05-15T02:44:03.243Z,33.80
2018-05-15T02:50:05.625Z,32.67
2018-05-15T02:56:07.333Z,33.03
2018-05-15T03:02:09.038Z,32.57
2018-05-15T03:08:10.695Z,31.23
2018-05-15T03:14:13.292Z,31.73
2018-05-15T03:20:15.345Z,31.27
2018-05-15T03:26:18.192Z,32.07
2018-05-15T03:32:20.135Z,32.67
2018-05-15T03:38:21.793Z,32.33
2018-05-15T03:44:24.303Z,31.53
2018-05-15T03:50:26.203Z,30.70
2018-05-15T03:56:28.132Z,31.50
2018-05-15T04:02:48.249Z,30.10
2018-05-15T04:08:49.899Z,29.93
2018-05-15T04:14:51.912Z,30.77
2018-05-15T04:20:53.715Z,30.30
2018-05-15T04:26:55.640Z,30.37
2018-05-15T04:32:57.318Z,29.93
2018-05-15T04:38:58.980Z,28.70
2018-05-15T04:45:00.643Z,28.40
2018-05-15T04:51:02.416Z,32.13
2018-05-15T04:57:05.551Z,30.20
2018-05-15T05:03:07.195Z,33.50
2018-05-15T05:09:08.908Z,27.80
2018-05-15T05:15:10.585Z,30.53
2018-05-15T05:21:12.307Z,28.53
2018-05-15T05:27:14.801Z,28.50
2018-05-15T05:33:17.245Z,26.77
2018-05-15T05:39:19.760Z,26.50
2018-05-15T05:45:21.576Z,26.13
2018-05-15T05:51:23.380Z,26.00
2018-05-15T05:57:25.036Z,26.50
2018-05-15T06:03:26.980Z,25.57
2018-05-15T06:09:28.699Z,28.30
2018-05-15T06:15:30.583Z,26.23
2018-05-15T06:21:32.348Z,28.00
2018-05-15T06:27:34.058Z,28.30
2018-05-15T06:33:35.689Z,27.07
2018-05-15T06:39:38.081Z,53.30
2018-05-15T06:45:39.798Z,29.43
2018-05-15T06:51:41.467Z,25.13
2018-05-15T06:57:43.434Z,25.87
2018-05-15T07:03:45.857Z,56.67
2018-05-15T07:09:48.358Z,21.83
2018-05-15T07:15:50.143Z,13.43
2018-05-15T07:21:51.765Z,10.63
2018-05-15T07:27:53.575Z,10.00
2018-05-15T07:33:55.229Z,9.57
2018-05-15T07:39:59.623Z,8.67
2018-05-15T07:46:01.305Z,13.77
2018-05-15T07:52:03.698Z,10.37
2018-05-15T07:58:05.329Z,13.23
2018-05-15T08:04:07.370Z,10.50
2018-05-15T08:10:09.854Z,9.47
2018-05-15T08:16:11.788Z,9.07
2018-05-15T08:22:13.827Z,10.00
2018-05-15T08:28:15.543Z,23.00
2018-05-15T08:34:17.637Z,19.47
2018-05-15T08:40:20.159Z,12.47
2018-05-15T08:46:21.950Z,16.37
2018-05-15T08:52:23.870Z,11.20
2018-05-15T08:58:25.696Z,9.40
2018-05-15T09:04:27.468Z,10.07
2018-05-15T09:10:29.610Z,9.63
2018-05-15T09:16:32.147Z,9.20
2018-05-15T09:22:34.651Z,10.03
2018-05-15T09:28:36.412Z,10.07
2018-05-15T09:34:38.358Z,9.07
2018-05-15T09:40:40.091Z,11.67
2018-05-15T09:46:41.813Z,10.43
2018-05-15T09:52:43.531Z,9.83
2018-05-15T09:58:46.262Z,10.30
2018-05-15T10:04:47.984Z,11.60
2018-05-15T10:10:50.460Z,10.80
2018-05-15T10:16:52.131Z,9.97
2018-05-15T10:22:54.689Z,9.90
2018-05-15T10:28:56.342Z,10.87
2018-05-15T10:34:57.987Z,9.60
2018-05-15T10:41:00.378Z,11.80
2018-05-15T10:47:02.051Z,11.10
2018-05-15T10:53:04.530Z,12.17
2018-05-15T10:59:06.278Z,12.30
2018-05-15T11:05:07.940Z,10.77
2018-05-15T11:11:10.515Z,13.93
2018-05-15T11:17:12.187Z,12.17
2018-05-15T11:23:32.420Z,11.67
2018-05-15T11:29:35.128Z,10.00
2018-05-15T11:35:37.887Z,13.33
2018-05-15T11:41:39.987Z,12.47
2018-05-15T11:47:41.697Z,12.60
2018-05-15T11:53:44.017Z,12.87
